Santander, Cantabria

latitud = 43° 29' 28''N | longitud = 003° 48' 02''W
52 metros sobre el nivel del mar | datos mensuales

Fecha, hora, temperatura, viento dirección y velocidad, humedad y presión.

  • 21-06-2018 22:00:00 | 19.20°C | Norte |10.00 km/h | 97.00% | 1015.70 hPa
  • 21-06-2018 21:00:00 | 19.20°C | Norte |7.00 km/h | 98.00% | 1015.40 hPa
  • 21-06-2018 20:00:00 | 19.30°C | Oeste |15.00 km/h | 97.00% | 1015.30 hPa
  • 21-06-2018 19:00:00 | 19.90°C | Oeste |18.00 km/h | 93.00% | 1014.70 hPa
  • 21-06-2018 18:00:00 | 20.60°C | Oeste |18.00 km/h | 90.00% | 1014.80 hPa
  • 21-06-2018 17:00:00 | 21.50°C | Oeste |19.00 km/h | 86.00% | 1014.50 hPa
  • 21-06-2018 16:00:00 | 21.80°C | Oeste |18.00 km/h | 84.00% | 1014.70 hPa
  • 21-06-2018 15:00:00 | 21.30°C | Oeste |17.00 km/h | 87.00% | 1014.80 hPa
  • 21-06-2018 14:00:00 | 20.40°C | Oeste |18.00 km/h | 90.00% | 1015.00 hPa
  • 21-06-2018 13:00:00 | 21.00°C | Oeste |19.00 km/h | 91.00% | 1014.90 hPa
  • 21-06-2018 12:00:00 | 20.40°C | Oeste |18.00 km/h | 90.00% | 1014.70 hPa
  • 21-06-2018 11:00:00 | 19.40°C | Oeste |15.00 km/h | 96.00% | 1014.30 hPa
  • 21-06-2018 10:00:00 | 19.10°C | Oeste |13.00 km/h | 96.00% | 1013.90 hPa
  • 21-06-2018 09:00:00 | 19.10°C | Oeste |9.00 km/h | 95.00% | 1013.50 hPa
  • 21-06-2018 08:00:00 | 18.90°C | Oeste |8.00 km/h | 95.00% | 1013.50 hPa
  • 21-06-2018 07:00:00 | 18.80°C | Sudoeste |10.00 km/h | 95.00% | 1013.60 hPa
  • 21-06-2018 06:00:00 | 18.70°C | Oeste |14.00 km/h | 95.00% | 1013.60 hPa
  • 21-06-2018 05:00:00 | 18.80°C | Oeste |12.00 km/h | 94.00% | 1013.50 hPa
  • 21-06-2018 04:00:00 | 18.90°C | Sudoeste |10.00 km/h | 93.00% | 1013.40 hPa
  • 21-06-2018 03:00:00 | 19.10°C | Oeste |10.00 km/h | 92.00% | 1013.90 hPa
  • 21-06-2018 02:00:00 | 19.20°C | Sudoeste |9.00 km/h | 91.00% | 1013.90 hPa
  • 21-06-2018 01:00:00 | 19.20°C | Oeste |10.00 km/h | 92.00% | 1014.00 hPa
  • 21-06-2018 00:00:00 | 19.10°C | Oeste |13.00 km/h | 93.00% | 1013.90 hPa
  • 20-06-2018 23:00:00 | 19.30°C | Oeste |13.00 km/h | 94.00% | 1013.40 hPa